sensor_id;sensor_type;location;lat;lon;timestamp;temperature;humidity
18189;DHT22;9219;50.396;8.546;2023-08-12T00:03:57;25.60;99.90
18189;DHT22;9219;50.396;8.546;2023-08-12T00:06:24;25.50;99.90
18189;DHT22;9219;50.396;8.546;2023-08-12T00:08:52;25.60;99.90
18189;DHT22;9219;50.396;8.546;2023-08-12T00:11:20;25.70;99.90
18189;DHT22;9219;50.396;8.546;2023-08-12T00:13:47;25.70;99.90
18189;DHT22;9219;50.396;8.546;2023-08-12T00:16:17;25.70;99.90
18189;DHT22;9219;50.396;8.546;2023-08-12T00:18:44;25.70;99.90
18189;DHT22;9219;50.396;8.546;2023-08-12T00:21:13;25.70;99.90
18189;DHT22;9219;50.396;8.546;2023-08-12T00:29:13;25.60;99.90
18189;DHT22;9219;50.396;8.546;2023-08-12T00:31:40;25.40;99.90
18189;DHT22;9219;50.396;8.546;2023-08-12T00:34:08;25.50;99.90
18189;DHT22;9219;50.396;8.546;2023-08-12T00:36:35;25.60;99.90
18189;DHT22;9219;50.396;8.546;2023-08-12T00:39:03;25.70;99.90
18189;DHT22;9219;50.396;8.546;2023-08-12T00:41:31;25.70;99.90
18189;DHT22;9219;50.396;8.546;2023-08-12T00:43:58;25.70;99.90
18189;DHT22;9219;50.396;8.546;2023-08-12T00:49:17;25.70;99.90
18189;DHT22;9219;50.396;8.546;2023-08-12T00:51:45;25.60;99.90
18189;DHT22;9219;50.396;8.546;2023-08-12T00:54:14;25.60;99.90
18189;DHT22;9219;50.396;8.546;2023-08-12T00:56:43;25.60;99.90
18189;DHT22;9219;50.396;8.546;2023-08-12T00:59:10;25.60;99.90
18189;DHT22;9219;50.396;8.546;2023-08-12T01:01:40;25.60;99.90
18189;DHT22;9219;50.396;8.546;2023-08-12T01:04:08;25.70;99.90
18189;DHT22;9219;50.396;8.546;2023-08-12T01:06:37;25.70;99.90
18189;DHT22;9219;50.396;8.546;2023-08-12T01:10:35;25.60;99.90
18189;DHT22;9219;50.396;8.546;2023-08-12T01:13:09;25.60;99.90
18189;DHT22;9219;50.396;8.546;2023-08-12T01:15:40;25.50;99.90
18189;DHT22;9219;50.396;8.546;2023-08-12T01:18:10;25.60;99.90
18189;DHT22;9219;50.396;8.546;2023-08-12T01:20:38;25.50;99.90
18189;DHT22;9219;50.396;8.546;2023-08-12T01:23:10;25.50;99.90
18189;DHT22;9219;50.396;8.546;2023-08-12T01:25:37;25.50;99.90
18189;DHT22;9219;50.396;8.546;2023-08-12T01:31:32;25.50;99.90
18189;DHT22;9219;50.396;8.546;2023-08-12T01:34:09;25.50;99.90
18189;DHT22;9219;50.396;8.546;2023-08-12T01:36:39;25.40;99.90
18189;DHT22;9219;50.396;8.546;2023-08-12T01:39:08;25.50;99.90
18189;DHT22;9219;50.396;8.546;2023-08-12T01:41:37;25.60;99.90
18189;DHT22;9219;50.396;8.546;2023-08-12T01:44:05;25.60;99.90
18189;DHT22;9219;50.396;8.546;2023-08-12T01:46:33;25.60;99.90
18189;DHT22;9219;50.396;8.546;2023-08-12T01:56:29;25.60;99.90
18189;DHT22;9219;50.396;8.546;2023-08-12T01:58:56;25.40;99.90
18189;DHT22;9219;50.396;8.546;2023-08-12T02:01:23;24.90;99.90
18189;DHT22;9219;50.396;8.546;2023-08-12T02:03:50;24.60;99.90
18189;DHT22;9219;50.396;8.546;2023-08-12T02:06:18;24.60;99.90
18189;DHT22;9219;50.396;8.546;2023-08-12T02:08:45;24.50;99.90
18189;DHT22;9219;50.396;8.546;2023-08-12T02:11:12;24.30;99.90
18189;DHT22;9219;50.396;8.546;2023-08-12T02:20:01;23.90;99.90
18189;DHT22;9219;50.396;8.546;2023-08-12T02:22:29;23.60;99.90
18189;DHT22;9219;50.396;8.546;2023-08-12T02:24:57;23.20;99.90
18189;DHT22;9219;50.396;8.546;2023-08-12T02:27:24;22.90;99.90
18189;DHT22;9219;50.396;8.546;2023-08-12T02:29:51;22.90;99.90
18189;DHT22;9219;50.396;8.546;2023-08-12T02:32:18;22.70;99.90
18189;DHT22;9219;50.396;8.546;2023-08-12T02:34:46;22.60;99.90
18189;DHT22;9219;50.396;8.546;2023-08-12T02:37:14;22.50;99.90
18189;DHT22;9219;50.396;8.546;2023-08-12T02:40:57;22.10;99.90
18189;DHT22;9219;50.396;8.546;2023-08-12T02:43:24;21.50;99.90
18189;DHT22;9219;50.396;8.546;2023-08-12T02:45:52;21.50;99.90
18189;DHT22;9219;50.396;8.546;2023-08-12T02:48:20;21.30;99.90
18189;DHT22;9219;50.396;8.546;2023-08-12T02:50:48;21.10;99.90
18189;DHT22;9219;50.396;8.546;2023-08-12T02:53:17;20.90;99.90
18189;DHT22;9219;50.396;8.546;2023-08-12T02:55:44;20.50;99.90
18189;DHT22;9219;50.396;8.546;2023-08-12T02:58:13;20.30;99.90
18189;DHT22;9219;50.396;8.546;2023-08-12T03:05:41;20.00;99.90
18189;DHT22;9219;50.396;8.546;2023-08-12T03:08:10;19.50;99.90
18189;DHT22;9219;50.396;8.546;2023-08-12T03:10:38;19.50;99.90
18189;DHT22;9219;50.396;8.546;2023-08-12T03:13:05;19.50;99.90
18189;DHT22;9219;50.396;8.546;2023-08-12T03:15:32;19.40;99.90
18189;DHT22;9219;50.396;8.546;2023-08-12T03:18:00;19.40;99.90
18189;DHT22;9219;50.396;8.546;2023-08-12T03:20:27;19.50;99.90
18189;DHT22;9219;50.396;8.546;2023-08-12T03:22:55;19.50;99.90
18189;DHT22;9219;50.396;8.546;2023-08-12T03:26:37;19.40;99.90
18189;DHT22;9219;50.396;8.546;2023-08-12T03:29:04;19.30;99.90
18189;DHT22;9219;50.396;8.546;2023-08-12T03:31:32;19.30;99.90
18189;DHT22;9219;50.396;8.546;2023-08-12T03:34:02;19.60;99.90
18189;DHT22;9219;50.396;8.546;2023-08-12T03:36:29;19.80;99.90
18189;DHT22;9219;50.396;8.546;2023-08-12T03:38:57;20.00;99.90
18189;DHT22;9219;50.396;8.546;2023-08-12T03:41:24;20.20;99.90
18189;DHT22;9219;50.396;8.546;2023-08-12T03:46:48;20.20;99.90
18189;DHT22;9219;50.396;8.546;2023-08-12T03:49:16;19.90;99.90
18189;DHT22;9219;50.396;8.546;2023-08-12T03:51:46;19.90;99.90
18189;DHT22;9219;50.396;8.546;2023-08-12T03:54:13;20.10;99.90
18189;DHT22;9219;50.396;8.546;2023-08-12T03:56:40;20.50;99.90
18189;DHT22;9219;50.396;8.546;2023-08-12T03:59:07;20.60;99.90
18189;DHT22;9219;50.396;8.546;2023-08-12T04:01:35;20.60;99.90
18189;DHT22;9219;50.396;8.546;2023-08-12T04:06:43;20.60;99.90
18189;DHT22;9219;50.396;8.546;2023-08-12T04:09:11;21.20;99.90
18189;DHT22;9219;50.396;8.546;2023-08-12T04:11:38;21.20;99.90
18189;DHT22;9219;50.396;8.546;2023-08-12T04:14:06;21.20;99.90
18189;DHT22;9219;50.396;8.546;2023-08-12T04:16:34;21.50;99.90
18189;DHT22;9219;50.396;8.546;2023-08-12T04:19:01;21.60;99.90
18189;DHT22;9219;50.396;8.546;2023-08-12T04:21:28;21.40;99.90
18189;DHT22;9219;50.396;8.546;2023-08-12T04:23:57;21.50;99.90
18189;DHT22;9219;50.396;8.546;2023-08-12T04:31:28;21.50;99.90
18189;DHT22;9219;50.396;8.546;2023-08-12T04:33:55;21.20;99.90
18189;DHT22;9219;50.396;8.546;2023-08-12T04:36:23;21.20;99.90
18189;DHT22;9219;50.396;8.546;2023-08-12T04:38:50;21.40;99.90
18189;DHT22;9219;50.396;8.546;2023-08-12T04:41:17;21.50;99.90
18189;DHT22;9219;50.396;8.546;2023-08-12T04:43:45;21.60;99.90
18189;DHT22;9219;50.396;8.546;2023-08-12T04:46:12;21.80;99.90
18189;DHT22;9219;50.396;8.546;2023-08-12T04:51:26;21.90;99.90
18189;DHT22;9219;50.396;8.546;2023-08-12T04:53:54;22.00;99.90
18189;DHT22;9219;50.396;8.546;2023-08-12T04:56:21;22.00;99.90
18189;DHT22;9219;50.396;8.546;2023-08-12T04:58:50;22.10;99.90
18189;DHT22;9219;50.396;8.546;2023-08-12T05:01:17;22.30;99.90
18189;DHT22;9219;50.396;8.546;2023-08-12T05:03:44;22.40;99.90
18189;DHT22;9219;50.396;8.546;2023-08-12T05:06:12;22.40;99.90
18189;DHT22;9219;50.396;8.546;2023-08-12T05:14:03;22.70;99.90
18189;DHT22;9219;50.396;8.546;2023-08-12T05:16:31;22.70;99.90
18189;DHT22;9219;50.396;8.546;2023-08-12T05:18:58;22.60;99.90
18189;DHT22;9219;50.396;8.546;2023-08-12T05:21:25;22.50;99.90
18189;DHT22;9219;50.396;8.546;2023-08-12T05:23:53;22.40;99.90
18189;DHT22;9219;50.396;8.546;2023-08-12T05:26:20;22.30;99.90
18189;DHT22;9219;50.396;8.546;2023-08-12T05:28:47;22.20;99.90
18189;DHT22;9219;50.396;8.546;2023-08-12T05:34:17;21.90;99.90
18189;DHT22;9219;50.396;8.546;2023-08-12T05:36:44;21.90;99.90
18189;DHT22;9219;50.396;8.546;2023-08-12T05:39:12;21.80;99.90
18189;DHT22;9219;50.396;8.546;2023-08-12T05:41:39;21.80;99.90
18189;DHT22;9219;50.396;8.546;2023-08-12T05:44:07;21.80;99.90
18189;DHT22;9219;50.396;8.546;2023-08-12T05:46:34;22.00;99.90
18189;DHT22;9219;50.396;8.546;2023-08-12T05:49:01;22.20;99.90
18189;DHT22;9219;50.396;8.546;2023-08-12T05:54:45;22.30;99.90
18189;DHT22;9219;50.396;8.546;2023-08-12T05:57:12;22.40;99.90
18189;DHT22;9219;50.396;8.546;2023-08-12T05:59:40;22.40;99.90
18189;DHT22;9219;50.396;8.546;2023-08-12T06:02:10;22.40;99.90
18189;DHT22;9219;50.396;8.546;2023-08-12T06:04:39;22.60;99.90
18189;DHT22;9219;50.396;8.546;2023-08-12T06:07:06;22.80;99.90
18189;DHT22;9219;50.396;8.546;2023-08-12T06:09:34;22.90;99.90
18189;DHT22;9219;50.396;8.546;2023-08-12T06:12:03;23.00;99.90
18189;DHT22;9219;50.396;8.546;2023-08-12T06:14:58;23.10;99.90
18189;DHT22;9219;50.396;8.546;2023-08-12T06:17:28;22.90;99.90
18189;DHT22;9219;50.396;8.546;2023-08-12T06:19:55;22.80;99.90
18189;DHT22;9219;50.396;8.546;2023-08-12T06:22:26;22.80;99.90
18189;DHT22;9219;50.396;8.546;2023-08-12T06:24:55;22.70;99.90
18189;DHT22;9219;50.396;8.546;2023-08-12T06:27:24;22.60;99.90
18189;DHT22;9219;50.396;8.546;2023-08-12T06:29:57;22.50;99.90
18189;DHT22;9219;50.396;8.546;2023-08-12T06:37:09;22.50;99.90
18189;DHT22;9219;50.396;8.546;2023-08-12T06:39:37;22.20;99.90
18189;DHT22;9219;50.396;8.546;2023-08-12T06:42:05;22.40;99.90
18189;DHT22;9219;50.396;8.546;2023-08-12T06:44:33;22.40;99.90
18189;DHT22;9219;50.396;8.546;2023-08-12T06:47:01;22.30;99.90
18189;DHT22;9219;50.396;8.546;2023-08-12T06:49:28;22.40;99.90
18189;DHT22;9219;50.396;8.546;2023-08-12T06:51:56;22.50;99.90
18189;DHT22;9219;50.396;8.546;2023-08-12T06:57:05;22.60;99.90
18189;DHT22;9219;50.396;8.546;2023-08-12T06:59:32;22.60;99.90
18189;DHT22;9219;50.396;8.546;2023-08-12T07:02:01;22.70;99.90
18189;DHT22;9219;50.396;8.546;2023-08-12T07:04:29;22.70;99.90
18189;DHT22;9219;50.396;8.546;2023-08-12T07:06:57;22.40;99.90
18189;DHT22;9219;50.396;8.546;2023-08-12T07:09:25;22.50;99.90
18189;DHT22;9219;50.396;8.546;2023-08-12T07:11:55;22.60;99.90
18189;DHT22;9219;50.396;8.546;2023-08-12T07:17:03;22.70;99.90
18189;DHT22;9219;50.396;8.546;2023-08-12T07:19:31;22.50;99.90
18189;DHT22;9219;50.396;8.546;2023-08-12T07:21:58;22.30;99.90
18189;DHT22;9219;50.396;8.546;2023-08-12T07:24:26;22.40;99.90
18189;DHT22;9219;50.396;8.546;2023-08-12T07:26:53;22.70;99.90
18189;DHT22;9219;50.396;8.546;2023-08-12T07:29:21;22.70;99.90
18189;DHT22;9219;50.396;8.546;2023-08-12T07:31:48;22.90;99.90
18189;DHT22;9219;50.396;8.546;2023-08-12T07:39:21;23.10;99.90
18189;DHT22;9219;50.396;8.546;2023-08-12T07:41:49;23.30;99.90
18189;DHT22;9219;50.396;8.546;2023-08-12T07:44:16;23.30;99.90
18189;DHT22;9219;50.396;8.546;2023-08-12T07:46:43;23.20;99.90
18189;DHT22;9219;50.396;8.546;2023-08-12T07:49:10;23.30;99.90
18189;DHT22;9219;50.396;8.546;2023-08-12T07:51:38;23.20;99.90
18189;DHT22;9219;50.396;8.546;2023-08-12T07:54:06;23.20;99.90
18189;DHT22;9219;50.396;8.546;2023-08-12T07:56:35;23.30;99.90
18189;DHT22;9219;50.396;8.546;2023-08-12T08:04:08;23.60;99.90
18189;DHT22;9219;50.396;8.546;2023-08-12T08:06:36;23.70;99.90
18189;DHT22;9219;50.396;8.546;2023-08-12T08:09:04;23.80;99.90
18189;DHT22;9219;50.396;8.546;2023-08-12T08:11:31;23.70;99.90
18189;DHT22;9219;50.396;8.546;2023-08-12T08:13:59;23.60;99.90
18189;DHT22;9219;50.396;8.546;2023-08-12T08:16:26;23.70;99.90
18189;DHT22;9219;50.396;8.546;2023-08-12T08:18:55;24.20;99.90
18189;DHT22;9219;50.396;8.546;2023-08-12T08:24:00;23.80;99.90
18189;DHT22;9219;50.396;8.546;2023-08-12T08:26:28;23.80;99.90
18189;DHT22;9219;50.396;8.546;2023-08-12T08:28:55;23.60;99.90
18189;DHT22;9219;50.396;8.546;2023-08-12T08:31:23;23.50;99.90
18189;DHT22;9219;50.396;8.546;2023-08-12T08:33:50;23.60;99.90
18189;DHT22;9219;50.396;8.546;2023-08-12T08:36:18;23.60;99.90
18189;DHT22;9219;50.396;8.546;2023-08-12T08:38:45;23.70;99.90
18189;DHT22;9219;50.396;8.546;2023-08-12T08:46:51;23.80;99.90
18189;DHT22;9219;50.396;8.546;2023-08-12T08:49:19;24.10;99.90
18189;DHT22;9219;50.396;8.546;2023-08-12T08:51:48;23.90;99.90
18189;DHT22;9219;50.396;8.546;2023-08-12T08:54:16;24.10;99.90
18189;DHT22;9219;50.396;8.546;2023-08-12T08:56:43;24.10;99.90
18189;DHT22;9219;50.396;8.546;2023-08-12T08:59:17;24.20;99.90
18189;DHT22;9219;50.396;8.546;2023-08-12T09:01:46;24.00;99.90
18189;DHT22;9219;50.396;8.546;2023-08-12T09:04:19;24.10;99.90
18189;DHT22;9219;50.396;8.546;2023-08-12T09:12:18;24.10;99.90
18189;DHT22;9219;50.396;8.546;2023-08-12T09:14:47;24.30;99.90
18189;DHT22;9219;50.396;8.546;2023-08-12T09:17:15;24.30;99.90
18189;DHT22;9219;50.396;8.546;2023-08-12T09:19:43;24.30;99.90
18189;DHT22;9219;50.396;8.546;2023-08-12T09:22:10;24.40;99.90
18189;DHT22;9219;50.396;8.546;2023-08-12T09:24:40;24.30;99.90
18189;DHT22;9219;50.396;8.546;2023-08-12T09:27:07;24.10;99.90
18189;DHT22;9219;50.396;8.546;2023-08-12T09:33:06;24.00;99.90
18189;DHT22;9219;50.396;8.546;2023-08-12T09:35:46;23.90;99.90
18189;DHT22;9219;50.396;8.546;2023-08-12T09:38:13;24.00;99.90
18189;DHT22;9219;50.396;8.546;2023-08-12T09:40:42;24.10;99.90
18189;DHT22;9219;50.396;8.546;2023-08-12T09:43:10;23.90;99.90
18189;DHT22;9219;50.396;8.546;2023-08-12T09:45:39;23.90;99.90
18189;DHT22;9219;50.396;8.546;2023-08-12T09:48:08;23.90;99.90
18189;DHT22;9219;50.396;8.546;2023-08-12T09:57:44;24.10;99.90
18189;DHT22;9219;50.396;8.546;2023-08-12T10:00:16;24.30;99.90
18189;DHT22;9219;50.396;8.546;2023-08-12T10:02:45;24.40;99.90
18189;DHT22;9219;50.396;8.546;2023-08-12T10:05:41;24.60;99.90
18189;DHT22;9219;50.396;8.546;2023-08-12T10:08:10;24.50;99.90
18189;DHT22;9219;50.396;8.546;2023-08-12T10:10:39;24.60;99.90
18189;DHT22;9219;50.396;8.546;2023-08-12T10:13:12;24.50;99.90
18189;DHT22;9219;50.396;8.546;2023-08-12T10:18:22;24.40;99.90
18189;DHT22;9219;50.396;8.546;2023-08-12T10:20:52;24.50;99.90
18189;DHT22;9219;50.396;8.546;2023-08-12T10:23:21;24.60;99.90
18189;DHT22;9219;50.396;8.546;2023-08-12T10:25:49;24.70;99.90
18189;DHT22;9219;50.396;8.546;2023-08-12T10:28:21;24.70;99.90
18189;DHT22;9219;50.396;8.546;2023-08-12T10:30:49;24.70;99.90
18189;DHT22;9219;50.396;8.546;2023-08-12T10:33:17;25.00;99.90
18189;DHT22;9219;50.396;8.546;2023-08-12T10:40:52;24.90;99.90
18189;DHT22;9219;50.396;8.546;2023-08-12T10:43:20;25.10;99.90
18189;DHT22;9219;50.396;8.546;2023-08-12T10:45:49;25.00;99.90
18189;DHT22;9219;50.396;8.546;2023-08-12T10:48:22;25.00;99.90
18189;DHT22;9219;50.396;8.546;2023-08-12T10:50:52;24.90;99.90
18189;DHT22;9219;50.396;8.546;2023-08-12T10:53:23;24.80;99.90
18189;DHT22;9219;50.396;8.546;2023-08-12T10:55:56;24.90;99.90
18189;DHT22;9219;50.396;8.546;2023-08-12T11:01:53;24.60;99.90
18189;DHT22;9219;50.396;8.546;2023-08-12T11:04:20;24.40;99.90
18189;DHT22;9219;50.396;8.546;2023-08-12T11:06:48;24.30;99.90
18189;DHT22;9219;50.396;8.546;2023-08-12T11:09:15;24.30;99.90
18189;DHT22;9219;50.396;8.546;2023-08-12T11:12:04;24.20;99.90
18189;DHT22;9219;50.396;8.546;2023-08-12T11:14:31;24.00;99.90
18189;DHT22;9219;50.396;8.546;2023-08-12T11:16:59;24.10;99.90
18189;DHT22;9219;50.396;8.546;2023-08-12T11:22:18;24.30;99.90
18189;DHT22;9219;50.396;8.546;2023-08-12T11:24:47;24.10;99.90
18189;DHT22;9219;50.396;8.546;2023-08-12T11:27:15;24.00;99.90
18189;DHT22;9219;50.396;8.546;2023-08-12T11:29:42;24.10;99.90
18189;DHT22;9219;50.396;8.546;2023-08-12T11:32:10;24.20;99.90
18189;DHT22;9219;50.396;8.546;2023-08-12T11:34:39;24.00;99.90
18189;DHT22;9219;50.396;8.546;2023-08-12T11:37:07;24.10;99.90
18189;DHT22;9219;50.396;8.546;2023-08-12T11:42:50;24.00;99.90
18189;DHT22;9219;50.396;8.546;2023-08-12T11:45:20;23.90;99.90
18189;DHT22;9219;50.396;8.546;2023-08-12T11:47:47;24.00;99.90
18189;DHT22;9219;50.396;8.546;2023-08-12T11:50:19;24.40;99.90
18189;DHT22;9219;50.396;8.546;2023-08-12T11:52:47;24.50;99.90
18189;DHT22;9219;50.396;8.546;2023-08-12T11:55:15;24.60;99.90
18189;DHT22;9219;50.396;8.546;2023-08-12T11:57:45;24.70;99.90
18189;DHT22;9219;50.396;8.546;2023-08-12T12:05:14;25.00;99.90
18189;DHT22;9219;50.396;8.546;2023-08-12T12:07:42;25.20;99.90
18189;DHT22;9219;50.396;8.546;2023-08-12T12:10:13;25.40;99.90
18189;DHT22;9219;50.396;8.546;2023-08-12T12:12:43;25.30;99.90
18189;DHT22;9219;50.396;8.546;2023-08-12T12:15:13;25.40;99.90
18189;DHT22;9219;50.396;8.546;2023-08-12T12:17:41;25.50;99.90
18189;DHT22;9219;50.396;8.546;2023-08-12T12:20:09;25.50;99.90
18189;DHT22;9219;50.396;8.546;2023-08-12T12:27:49;25.60;99.90
18189;DHT22;9219;50.396;8.546;2023-08-12T12:30:19;26.10;99.90
18189;DHT22;9219;50.396;8.546;2023-08-12T12:32:46;26.00;99.90
18189;DHT22;9219;50.396;8.546;2023-08-12T12:35:13;26.00;99.90
18189;DHT22;9219;50.396;8.546;2023-08-12T12:37:41;26.20;99.90
18189;DHT22;9219;50.396;8.546;2023-08-12T12:40:10;26.20;99.90
18189;DHT22;9219;50.396;8.546;2023-08-12T12:42:38;26.30;99.90
18189;DHT22;9219;50.396;8.546;2023-08-12T12:51:42;25.60;99.90
18189;DHT22;9219;50.396;8.546;2023-08-12T12:54:09;25.60;99.90
18189;DHT22;9219;50.396;8.546;2023-08-12T12:56:36;26.00;99.90
18189;DHT22;9219;50.396;8.546;2023-08-12T12:59:04;26.10;99.90
18189;DHT22;9219;50.396;8.546;2023-08-12T13:01:32;26.30;99.90
18189;DHT22;9219;50.396;8.546;2023-08-12T13:03:59;26.40;99.90
18189;DHT22;9219;50.396;8.546;2023-08-12T13:06:27;26.20;99.90
18189;DHT22;9219;50.396;8.546;2023-08-12T13:08:55;26.10;99.90
18189;DHT22;9219;50.396;8.546;2023-08-12T13:12:02;26.40;99.90
18189;DHT22;9219;50.396;8.546;2023-08-12T13:14:29;26.40;99.90
18189;DHT22;9219;50.396;8.546;2023-08-12T13:16:59;26.50;99.90
18189;DHT22;9219;50.396;8.546;2023-08-12T13:19:27;26.40;99.90
18189;DHT22;9219;50.396;8.546;2023-08-12T13:21:54;26.40;99.90
18189;DHT22;9219;50.396;8.546;2023-08-12T13:24:21;26.30;99.90
18189;DHT22;9219;50.396;8.546;2023-08-12T13:26:49;26.40;99.90
18189;DHT22;9219;50.396;8.546;2023-08-12T13:31:59;26.70;99.90
18189;DHT22;9219;50.396;8.546;2023-08-12T13:34:27;26.70;99.90
18189;DHT22;9219;50.396;8.546;2023-08-12T13:36:54;26.60;99.90
18189;DHT22;9219;50.396;8.546;2023-08-12T13:39:21;26.70;99.90
18189;DHT22;9219;50.396;8.546;2023-08-12T13:41:49;26.70;99.90
18189;DHT22;9219;50.396;8.546;2023-08-12T13:44:16;26.70;99.90
18189;DHT22;9219;50.396;8.546;2023-08-12T13:46:45;26.70;99.90
18189;DHT22;9219;50.396;8.546;2023-08-12T13:49:13;27.10;99.90
18189;DHT22;9219;50.396;8.546;2023-08-12T13:56:45;27.00;99.90
18189;DHT22;9219;50.396;8.546;2023-08-12T13:59:12;26.70;99.90
18189;DHT22;9219;50.396;8.546;2023-08-12T14:01:39;26.80;99.90
18189;DHT22;9219;50.396;8.546;2023-08-12T14:04:09;27.00;99.90
18189;DHT22;9219;50.396;8.546;2023-08-12T14:06:37;27.20;99.90
18189;DHT22;9219;50.396;8.546;2023-08-12T14:09:06;27.30;99.90
18189;DHT22;9219;50.396;8.546;2023-08-12T14:11:34;27.20;99.90
18189;DHT22;9219;50.396;8.546;2023-08-12T14:17:57;27.20;99.90
18189;DHT22;9219;50.396;8.546;2023-08-12T14:20:25;27.10;99.90
18189;DHT22;9219;50.396;8.546;2023-08-12T14:22:52;27.10;99.90
18189;DHT22;9219;50.396;8.546;2023-08-12T14:25:19;27.20;99.90
18189;DHT22;9219;50.396;8.546;2023-08-12T14:27:49;27.20;99.90
18189;DHT22;9219;50.396;8.546;2023-08-12T14:30:18;27.20;99.90
18189;DHT22;9219;50.396;8.546;2023-08-12T14:32:46;27.20;99.90
18189;DHT22;9219;50.396;8.546;2023-08-12T14:35:18;27.40;99.90
18189;DHT22;9219;50.396;8.546;2023-08-12T14:43:19;27.30;99.90
18189;DHT22;9219;50.396;8.546;2023-08-12T14:45:47;27.20;99.90
18189;DHT22;9219;50.396;8.546;2023-08-12T14:48:16;27.20;99.90
18189;DHT22;9219;50.396;8.546;2023-08-12T14:50:44;27.30;99.90
18189;DHT22;9219;50.396;8.546;2023-08-12T14:53:12;27.20;99.90
18189;DHT22;9219;50.396;8.546;2023-08-12T14:55:40;27.20;99.90
18189;DHT22;9219;50.396;8.546;2023-08-12T14:58:07;27.00;99.90
18189;DHT22;9219;50.396;8.546;2023-08-12T15:00:36;26.70;99.90
18189;DHT22;9219;50.396;8.546;2023-08-12T15:06:59;26.50;99.90
18189;DHT22;9219;50.396;8.546;2023-08-12T15:09:27;26.50;99.90
18189;DHT22;9219;50.396;8.546;2023-08-12T15:11:54;26.40;99.90
18189;DHT22;9219;50.396;8.546;2023-08-12T15:14:22;26.40;99.90
18189;DHT22;9219;50.396;8.546;2023-08-12T15:16:49;26.10;99.90
18189;DHT22;9219;50.396;8.546;2023-08-12T15:19:17;26.20;99.90
18189;DHT22;9219;50.396;8.546;2023-08-12T15:21:45;25.60;99.90
18189;DHT22;9219;50.396;8.546;2023-08-12T15:24:13;25.50;99.90
18189;DHT22;9219;50.396;8.546;2023-08-12T15:26:57;25.10;99.90
18189;DHT22;9219;50.396;8.546;2023-08-12T15:29:24;25.10;99.90
18189;DHT22;9219;50.396;8.546;2023-08-12T15:31:52;24.90;99.90
18189;DHT22;9219;50.396;8.546;2023-08-12T15:34:22;24.30;99.90
18189;DHT22;9219;50.396;8.546;2023-08-12T15:36:50;24.40;99.90
18189;DHT22;9219;50.396;8.546;2023-08-12T15:39:17;24.70;99.90
18189;DHT22;9219;50.396;8.546;2023-08-12T15:41:45;24.90;99.90
18189;DHT22;9219;50.396;8.546;2023-08-12T15:46:54;25.20;99.90
18189;DHT22;9219;50.396;8.546;2023-08-12T15:49:21;25.50;99.90
18189;DHT22;9219;50.396;8.546;2023-08-12T15:51:48;25.50;99.90
18189;DHT22;9219;50.396;8.546;2023-08-12T15:54:16;25.40;99.90
18189;DHT22;9219;50.396;8.546;2023-08-12T15:56:43;25.50;99.90
18189;DHT22;9219;50.396;8.546;2023-08-12T15:59:11;25.60;99.90
18189;DHT22;9219;50.396;8.546;2023-08-12T16:01:38;25.40;99.90
18189;DHT22;9219;50.396;8.546;2023-08-12T16:04:07;25.40;99.90
18189;DHT22;9219;50.396;8.546;2023-08-12T16:11:39;25.30;99.90
18189;DHT22;9219;50.396;8.546;2023-08-12T16:14:07;24.80;99.90
18189;DHT22;9219;50.396;8.546;2023-08-12T16:16:34;25.00;99.90
18189;DHT22;9219;50.396;8.546;2023-08-12T16:19:01;24.90;99.90
18189;DHT22;9219;50.396;8.546;2023-08-12T16:21:31;24.70;99.90
18189;DHT22;9219;50.396;8.546;2023-08-12T16:23:58;24.20;99.90
18189;DHT22;9219;50.396;8.546;2023-08-12T16:26:26;24.10;99.90
18189;DHT22;9219;50.396;8.546;2023-08-12T16:28:54;23.90;99.90
18189;DHT22;9219;50.396;8.546;2023-08-12T16:34:44;23.60;99.90
18189;DHT22;9219;50.396;8.546;2023-08-12T16:37:12;23.80;99.90
18189;DHT22;9219;50.396;8.546;2023-08-12T16:39:48;23.80;99.90
18189;DHT22;9219;50.396;8.546;2023-08-12T16:42:15;24.10;99.90
18189;DHT22;9219;50.396;8.546;2023-08-12T16:44:43;24.10;99.90
18189;DHT22;9219;50.396;8.546;2023-08-12T16:47:10;23.90;99.90
18189;DHT22;9219;50.396;8.546;2023-08-12T16:49:38;24.00;99.90
18189;DHT22;9219;50.396;8.546;2023-08-12T16:52:07;24.00;99.90
18189;DHT22;9219;50.396;8.546;2023-08-12T16:59:39;23.60;99.90
18189;DHT22;9219;50.396;8.546;2023-08-12T17:02:09;24.00;99.90
18189;DHT22;9219;50.396;8.546;2023-08-12T17:04:37;24.30;99.90
18189;DHT22;9219;50.396;8.546;2023-08-12T17:07:05;24.30;99.90
18189;DHT22;9219;50.396;8.546;2023-08-12T17:09:32;24.20;99.90
18189;DHT22;9219;50.396;8.546;2023-08-12T17:12:00;24.10;99.90
18189;DHT22;9219;50.396;8.546;2023-08-12T17:14:28;24.20;99.90
18189;DHT22;9219;50.396;8.546;2023-08-12T17:19:37;24.40;99.90
18189;DHT22;9219;50.396;8.546;2023-08-12T17:22:06;24.50;99.90
18189;DHT22;9219;50.396;8.546;2023-08-12T17:24:33;24.70;99.90
18189;DHT22;9219;50.396;8.546;2023-08-12T17:27:01;24.50;99.90
18189;DHT22;9219;50.396;8.546;2023-08-12T17:29:28;24.10;99.90
18189;DHT22;9219;50.396;8.546;2023-08-12T17:31:55;24.30;99.90
18189;DHT22;9219;50.396;8.546;2023-08-12T17:34:24;24.40;99.90
18189;DHT22;9219;50.396;8.546;2023-08-12T17:36:52;24.60;99.90
18189;DHT22;9219;50.396;8.546;2023-08-12T17:46:51;24.60;99.90
18189;DHT22;9219;50.396;8.546;2023-08-12T17:49:18;24.40;99.90
18189;DHT22;9219;50.396;8.546;2023-08-12T17:51:45;24.30;99.90
18189;DHT22;9219;50.396;8.546;2023-08-12T17:54:12;24.30;99.90
18189;DHT22;9219;50.396;8.546;2023-08-12T17:56:40;24.20;99.90
18189;DHT22;9219;50.396;8.546;2023-08-12T17:59:08;24.10;99.90
18189;DHT22;9219;50.396;8.546;2023-08-12T18:01:35;24.10;99.90
18189;DHT22;9219;50.396;8.546;2023-08-12T18:07:02;24.20;99.90
18189;DHT22;9219;50.396;8.546;2023-08-12T18:09:30;24.30;99.90
18189;DHT22;9219;50.396;8.546;2023-08-12T18:11:57;24.50;99.90
18189;DHT22;9219;50.396;8.546;2023-08-12T18:14:25;24.30;99.90
18189;DHT22;9219;50.396;8.546;2023-08-12T18:16:53;24.40;99.90
18189;DHT22;9219;50.396;8.546;2023-08-12T18:19:21;24.50;99.90
18189;DHT22;9219;50.396;8.546;2023-08-12T18:21:49;24.30;99.90
18189;DHT22;9219;50.396;8.546;2023-08-12T18:29:21;23.50;99.90
18189;DHT22;9219;50.396;8.546;2023-08-12T18:31:48;23.10;99.90
18189;DHT22;9219;50.396;8.546;2023-08-12T18:34:16;23.00;99.90
18189;DHT22;9219;50.396;8.546;2023-08-12T18:36:43;22.60;99.90
18189;DHT22;9219;50.396;8.546;2023-08-12T18:39:10;22.50;99.90
18189;DHT22;9219;50.396;8.546;2023-08-12T18:41:38;22.50;99.90
18189;DHT22;9219;50.396;8.546;2023-08-12T18:44:05;22.50;99.90
18189;DHT22;9219;50.396;8.546;2023-08-12T18:46:34;22.70;99.90
18189;DHT22;9219;50.396;8.546;2023-08-12T18:54:08;22.70;99.90
18189;DHT22;9219;50.396;8.546;2023-08-12T18:56:37;22.90;99.90
18189;DHT22;9219;50.396;8.546;2023-08-12T18:59:05;23.10;99.90
18189;DHT22;9219;50.396;8.546;2023-08-12T19:01:32;23.00;99.90
18189;DHT22;9219;50.396;8.546;2023-08-12T19:04:00;23.10;99.90
18189;DHT22;9219;50.396;8.546;2023-08-12T19:06:30;23.10;99.90
18189;DHT22;9219;50.396;8.546;2023-08-12T19:08:57;23.00;99.90
18189;DHT22;9219;50.396;8.546;2023-08-12T19:14:05;22.90;99.90
18189;DHT22;9219;50.396;8.546;2023-08-12T19:16:32;22.40;99.90